createdAt,value
2023-10-26T00:01:20.307Z,11.10
2023-10-26T00:03:48.268Z,11.10
2023-10-26T00:06:16.416Z,10.90
2023-10-26T00:08:44.326Z,10.90
2023-10-26T00:11:12.207Z,11.10
2023-10-26T00:13:40.150Z,11.20
2023-10-26T00:16:09.564Z,11.20
2023-10-26T00:18:37.528Z,11.30
2023-10-26T00:21:05.815Z,11.30
2023-10-26T00:23:33.725Z,11.30
2023-10-26T00:26:01.584Z,11.20
2023-10-26T00:28:29.554Z,11.30
2023-10-26T00:30:57.357Z,11.30
2023-10-26T00:33:26.534Z,11.30
2023-10-26T00:35:55.296Z,11.30
2023-10-26T00:38:23.233Z,11.30
2023-10-26T00:40:51.200Z,11.30
2023-10-26T00:43:23.224Z,11.30
2023-10-26T00:45:53.393Z,11.30
2023-10-26T00:48:22.325Z,11.30
2023-10-26T00:50:51.929Z,11.20
2023-10-26T00:53:21.522Z,11.10
2023-10-26T00:55:54.437Z,11.20
2023-10-26T00:58:23.663Z,11.20
2023-10-26T01:00:52.113Z,11.20
2023-10-26T01:03:20.909Z,11.20
2023-10-26T01:05:49.172Z,11.10
2023-10-26T01:08:18.428Z,10.90
2023-10-26T01:10:47.304Z,11.00
2023-10-26T01:13:15.439Z,11.10
2023-10-26T01:15:43.549Z,11.10
2023-10-26T01:18:11.535Z,11.10
2023-10-26T01:20:43.328Z,11.20
2023-10-26T01:23:12.835Z,11.10
2023-10-26T01:25:41.108Z,11.10
2023-10-26T01:28:09.213Z,11.10
2023-10-26T01:30:37.446Z,11.10
2023-10-26T01:33:05.338Z,11.10
2023-10-26T01:35:39.528Z,11.00
2023-10-26T01:38:07.631Z,11.00
2023-10-26T01:40:37.288Z,11.00
2023-10-26T01:43:05.449Z,11.00
2023-10-26T01:45:33.615Z,11.00
2023-10-26T01:48:03.655Z,11.10
2023-10-26T01:50:32.687Z,11.10
2023-10-26T01:53:00.979Z,11.00
2023-10-26T01:55:29.107Z,11.00
2023-10-26T01:57:58.989Z,11.00
2023-10-26T02:00:27.238Z,11.00
2023-10-26T02:02:56.954Z,10.90
2023-10-26T02:05:26.460Z,11.00
2023-10-26T02:07:54.559Z,11.00
2023-10-26T02:10:25.018Z,10.80
2023-10-26T02:12:53.016Z,10.80
2023-10-26T02:15:22.422Z,10.90
2023-10-26T02:17:50.853Z,11.00
2023-10-26T02:20:19.239Z,11.00
2023-10-26T02:22:47.987Z,11.00
2023-10-26T02:25:16.297Z,11.00
2023-10-26T02:27:45.148Z,11.10
2023-10-26T02:30:14.082Z,11.20
2023-10-26T02:32:43.407Z,11.10
2023-10-26T02:35:11.425Z,11.00
2023-10-26T02:37:40.468Z,11.00
2023-10-26T02:40:09.994Z,11.00
2023-10-26T02:42:40.379Z,10.90
2023-10-26T02:45:09.953Z,10.90
2023-10-26T02:47:38.934Z,11.00
2023-10-26T02:50:10.420Z,11.10
2023-10-26T02:52:39.285Z,10.90
2023-10-26T02:55:08.830Z,11.00
2023-10-26T02:57:36.928Z,10.90
2023-10-26T03:00:06.150Z,11.00
2023-10-26T03:02:34.441Z,10.90
2023-10-26T03:05:03.936Z,11.00
2023-10-26T03:07:33.444Z,11.10
2023-10-26T03:10:01.591Z,11.00
2023-10-26T03:12:29.869Z,11.10
2023-10-26T03:14:57.823Z,11.10
2023-10-26T03:17:25.811Z,11.10
2023-10-26T03:19:53.895Z,11.10
2023-10-26T03:22:22.250Z,11.10
2023-10-26T03:24:53.386Z,10.80
2023-10-26T03:27:21.445Z,10.90
2023-10-26T03:29:49.370Z,10.80
2023-10-26T03:32:17.282Z,10.90
2023-10-26T03:34:45.832Z,11.00
2023-10-26T03:37:13.965Z,10.90
2023-10-26T03:39:41.847Z,10.80
2023-10-26T03:42:11.304Z,10.70
2023-10-26T03:44:39.324Z,10.70
2023-10-26T03:47:08.768Z,10.80
2023-10-26T03:49:36.678Z,10.80
2023-10-26T03:52:05.151Z,10.90
2023-10-26T03:54:33.104Z,10.80
2023-10-26T03:57:01.220Z,10.90
2023-10-26T03:59:30.400Z,10.80
2023-10-26T04:01:58.329Z,10.90
2023-10-26T04:04:26.258Z,11.00
2023-10-26T04:06:54.106Z,10.80
2023-10-26T04:09:21.993Z,10.90
2023-10-26T04:11:49.969Z,11.00
2023-10-26T04:14:17.970Z,11.00
2023-10-26T04:16:48.796Z,11.00
2023-10-26T04:19:16.733Z,11.00
2023-10-26T04:21:44.662Z,11.00
2023-10-26T04:24:12.620Z,11.00
2023-10-26T04:26:40.850Z,11.00
2023-10-26T04:29:08.749Z,10.90
2023-10-26T04:31:36.847Z,10.90
2023-10-26T04:34:06.301Z,10.90
2023-10-26T04:36:34.395Z,10.80
2023-10-26T04:39:02.334Z,10.90
2023-10-26T04:41:30.640Z,11.00
2023-10-26T04:43:58.508Z,11.10
2023-10-26T04:46:26.450Z,11.00
2023-10-26T04:48:54.363Z,11.10
2023-10-26T04:51:23.554Z,11.00
2023-10-26T04:53:53.826Z,11.00
2023-10-26T04:56:21.937Z,11.00
2023-10-26T04:58:49.840Z,11.00
2023-10-26T05:01:17.871Z,10.90
2023-10-26T05:03:45.890Z,10.80
2023-10-26T05:06:13.980Z,10.90
2023-10-26T05:08:43.288Z,10.80
2023-10-26T05:11:11.257Z,10.80
2023-10-26T05:13:39.225Z,10.80
2023-10-26T05:16:07.461Z,10.90
2023-10-26T05:18:35.495Z,10.90
2023-10-26T05:21:03.508Z,10.90
2023-10-26T05:23:31.386Z,10.80
2023-10-26T05:26:00.775Z,10.80
2023-10-26T05:28:28.731Z,10.80
2023-10-26T05:30:56.646Z,10.80
2023-10-26T05:33:24.598Z,10.80
2023-10-26T05:35:52.975Z,10.80
2023-10-26T05:38:22.507Z,10.90
2023-10-26T05:40:52.011Z,10.90
2023-10-26T05:44:32.948Z,10.80
2023-10-26T05:47:02.339Z,10.80
2023-10-26T05:49:30.485Z,10.90
2023-10-26T05:52:02.185Z,10.80
2023-10-26T05:54:30.425Z,10.70
2023-10-26T05:56:58.466Z,10.70
2023-10-26T05:59:27.492Z,10.50
2023-10-26T06:01:55.366Z,10.60
2023-10-26T06:04:24.596Z,10.60
2023-10-26T06:06:52.441Z,10.70
2023-10-26T06:09:20.525Z,10.70
2023-10-26T06:11:48.539Z,10.70
2023-10-26T06:14:16.429Z,10.70
2023-10-26T06:16:44.388Z,10.60
2023-10-26T06:19:12.843Z,10.70
2023-10-26T06:21:42.491Z,10.60
2023-10-26T06:24:10.951Z,10.70
2023-10-26T06:26:39.060Z,10.70
2023-10-26T06:29:07.026Z,10.60
2023-10-26T06:31:35.018Z,10.60
2023-10-26T06:34:03.174Z,10.70
2023-10-26T06:36:32.109Z,10.60
2023-10-26T06:39:01.548Z,10.70
2023-10-26T06:41:29.418Z,10.80
2023-10-26T06:43:57.997Z,10.70
2023-10-26T06:46:26.632Z,10.70
2023-10-26T06:48:55.742Z,10.70
2023-10-26T06:51:23.791Z,10.70
2023-10-26T06:53:51.764Z,10.60
2023-10-26T06:56:20.974Z,10.70
2023-10-26T06:58:49.135Z,10.80
2023-10-26T07:01:20.548Z,10.80
2023-10-26T07:03:49.943Z,10.70
2023-10-26T07:06:18.165Z,10.70
2023-10-26T07:08:46.278Z,10.70
2023-10-26T07:11:14.135Z,10.60
2023-10-26T07:13:43.740Z,10.70
2023-10-26T07:16:11.699Z,10.60
2023-10-26T07:18:40.330Z,10.70
2023-10-26T07:21:09.546Z,10.80
2023-10-26T07:23:37.629Z,10.90
2023-10-26T07:26:06.011Z,11.00
2023-10-26T07:28:33.947Z,11.00
2023-10-26T07:31:03.146Z,11.10
2023-10-26T07:33:31.034Z,11.10
2023-10-26T07:35:59.817Z,11.10
2023-10-26T07:41:15.917Z,11.10
2023-10-26T07:43:44.419Z,11.00
2023-10-26T07:46:15.398Z,11.00
2023-10-26T07:48:43.546Z,11.10
2023-10-26T07:51:11.754Z,11.00
2023-10-26T07:53:39.692Z,11.20
2023-10-26T07:56:08.811Z,11.20
2023-10-26T07:58:36.683Z,11.20
2023-10-26T08:01:10.598Z,11.30
2023-10-26T08:03:39.912Z,11.30
2023-10-26T08:06:10.818Z,11.20
2023-10-26T08:08:38.880Z,11.10
2023-10-26T08:11:10.597Z,11.00
2023-10-26T08:13:38.680Z,11.10
2023-10-26T08:16:36.493Z,11.10
2023-10-26T08:18:56.559Z,11.20
2023-10-26T08:21:24.494Z,11.20
2023-10-26T08:23:52.359Z,11.30
2023-10-26T08:26:20.254Z,11.40
2023-10-26T08:28:49.008Z,11.30
2023-10-26T08:31:16.931Z,11.30
2023-10-26T08:33:45.075Z,11.30
2023-10-26T08:36:14.598Z,11.40
2023-10-26T08:38:42.560Z,11.60
2023-10-26T08:41:14.533Z,11.70
2023-10-26T08:43:44.715Z,11.70
2023-10-26T08:46:14.071Z,11.60
2023-10-26T08:48:44.703Z,11.80
2023-10-26T08:51:14.523Z,11.80
2023-10-26T08:53:46.917Z,11.90
2023-10-26T08:56:44.755Z,12.00
2023-10-26T08:59:12.730Z,12.10
2023-10-26T09:01:40.766Z,12.20
2023-10-26T09:04:12.600Z,12.10
2023-10-26T09:06:50.259Z,11.90
2023-10-26T09:09:20.523Z,11.90
2023-10-26T09:11:50.271Z,11.90
2023-10-26T09:14:19.958Z,11.80
2023-10-26T09:16:49.498Z,12.00
2023-10-26T09:19:20.887Z,12.10
2023-10-26T09:21:54.493Z,12.10
2023-10-26T09:24:25.934Z,12.10
2023-10-26T09:26:54.961Z,12.20
2023-10-26T09:29:23.832Z,12.10
2023-10-26T09:31:56.672Z,12.10
2023-10-26T09:48:06.702Z,12.80
2023-10-26T09:50:41.122Z,12.90
2023-10-26T09:55:39.524Z,12.90
2023-10-26T09:58:09.587Z,12.80
2023-10-26T10:00:37.650Z,12.60
2023-10-26T10:03:14.519Z,12.70
2023-10-26T10:05:43.715Z,12.70
2023-10-26T10:08:12.286Z,12.80
2023-10-26T10:11:16.699Z,12.80
2023-10-26T10:13:44.727Z,12.90
2023-10-26T10:16:47.358Z,13.00
2023-10-26T10:19:20.490Z,13.20
2023-10-26T10:21:49.252Z,13.20
2023-10-26T10:24:51.387Z,13.20
2023-10-26T10:27:19.710Z,13.20
2023-10-26T10:29:47.771Z,13.20
2023-10-26T10:32:52.339Z,13.30
2023-10-26T10:35:49.634Z,13.30
2023-10-26T10:38:25.249Z,13.30
2023-10-26T10:41:10.261Z,13.40
2023-10-26T10:43:41.571Z,13.50
2023-10-26T10:46:14.773Z,13.50
2023-10-26T10:49:05.536Z,13.30
2023-10-26T10:51:36.260Z,13.40
2023-10-26T10:54:18.651Z,13.60
2023-10-26T10:56:54.775Z,13.60
2023-10-26T10:59:24.809Z,13.70
2023-10-26T11:02:07.710Z,13.60
2023-10-26T11:04:44.458Z,13.50
2023-10-26T11:07:18.353Z,13.40
2023-10-26T11:09:48.059Z,13.20
2023-10-26T11:12:16.192Z,13.30
2023-10-26T11:14:50.827Z,13.40
2023-10-26T11:17:20.103Z,13.40
2023-10-26T11:19:48.828Z,13.40
2023-10-26T11:22:19.402Z,13.20
2023-10-26T11:24:48.137Z,13.30
2023-10-26T11:27:17.094Z,13.40
2023-10-26T11:29:47.685Z,13.40
2023-10-26T11:32:24.206Z,13.50
2023-10-26T11:35:09.197Z,13.70
2023-10-26T11:37:39.395Z,13.70
2023-10-26T11:40:09.209Z,13.70
2023-10-26T11:42:49.262Z,13.80
2023-10-26T11:45:18.121Z,13.90
2023-10-26T11:47:48.874Z,14.00
2023-10-26T11:50:21.420Z,14.10
2023-10-26T11:52:51.435Z,14.10
2023-10-26T11:55:19.947Z,14.20
2023-10-26T11:57:48.013Z,14.20
2023-10-26T12:00:17.171Z,14.20
2023-10-26T12:02:45.060Z,14.20
2023-10-26T12:05:16.793Z,14.30
2023-10-26T12:07:45.426Z,14.30
2023-10-26T12:10:16.195Z,14.30
2023-10-26T12:12:44.395Z,14.10
2023-10-26T12:15:12.618Z,14.10
2023-10-26T12:17:40.550Z,14.10
2023-10-26T12:20:10.658Z,14.10
2023-10-26T12:22:38.651Z,14.20
2023-10-26T12:25:07.890Z,14.20
2023-10-26T12:28:21.068Z,14.20
2023-10-26T12:30:25.413Z,14.20
2023-10-26T12:32:53.841Z,14.30
2023-10-26T12:35:22.361Z,14.40
2023-10-26T12:37:50.317Z,14.30
2023-10-26T12:40:19.494Z,14.30
2023-10-26T12:42:48.801Z,14.30
2023-10-26T12:45:18.503Z,14.30
2023-10-26T12:47:46.967Z,14.30
2023-10-26T12:50:14.859Z,14.30
2023-10-26T12:52:42.705Z,14.50
2023-10-26T12:55:10.790Z,14.50
2023-10-26T12:57:38.773Z,14.40
2023-10-26T13:00:10.681Z,14.40
2023-10-26T13:02:38.589Z,14.40
2023-10-26T13:05:07.137Z,14.40
2023-10-26T13:07:35.322Z,14.40
2023-10-26T13:36:45.327Z,14.60
2023-10-26T13:39:13.250Z,14.60
2023-10-26T13:41:41.568Z,14.60
2023-10-26T13:44:09.489Z,14.60
2023-10-26T13:50:40.009Z,14.70
2023-10-26T14:47:51.567Z,14.50
2023-10-26T14:50:19.547Z,14.50
2023-10-26T14:52:47.413Z,14.50
2023-10-26T14:55:15.656Z,14.40
2023-10-26T14:57:43.630Z,14.40
2023-10-26T15:00:12.124Z,14.50
2023-10-26T15:02:40.130Z,14.40
2023-10-26T15:05:10.716Z,14.40
2023-10-26T15:07:38.595Z,14.40
2023-10-26T15:10:23.609Z,14.40
2023-10-26T15:12:54.723Z,14.40
2023-10-26T15:15:22.880Z,14.40
2023-10-26T15:17:50.773Z,14.30
2023-10-26T15:20:20.131Z,14.30
2023-10-26T15:22:48.127Z,14.20
2023-10-26T15:25:16.172Z,14.20
2023-10-26T15:27:44.080Z,14.10
2023-10-26T15:30:13.457Z,14.00
2023-10-26T15:32:41.308Z,13.80
2023-10-26T15:35:09.494Z,13.80
2023-10-26T15:37:39.010Z,13.60
2023-10-26T15:40:07.963Z,13.20
2023-10-26T15:42:35.967Z,13.10
2023-10-26T15:45:05.176Z,13.10
2023-10-26T15:47:33.657Z,12.80
2023-10-26T15:50:02.030Z,12.70
2023-10-26T15:52:30.090Z,12.50
2023-10-26T15:54:59.477Z,12.50
2023-10-26T15:57:28.039Z,12.40
2023-10-26T15:59:56.049Z,12.40
2023-10-26T16:02:23.932Z,12.60
2023-10-26T16:04:51.780Z,12.50
2023-10-26T16:07:19.695Z,12.60
2023-10-26T16:09:47.702Z,12.60
2023-10-26T16:12:17.332Z,12.70
2023-10-26T16:14:46.157Z,12.70
2023-10-26T16:17:14.444Z,12.70
2023-10-26T16:19:42.408Z,12.60
2023-10-26T16:22:10.625Z,12.60
2023-10-26T16:24:38.962Z,12.60
2023-10-26T16:27:07.190Z,12.50
2023-10-26T16:29:38.134Z,12.40
2023-10-26T16:32:06.804Z,12.40
2023-10-26T16:34:34.652Z,12.30
2023-10-26T16:37:02.670Z,12.20
2023-10-26T16:39:30.638Z,12.10
2023-10-26T16:42:00.815Z,12.10
2023-10-26T16:44:28.733Z,12.00
2023-10-26T16:46:57.910Z,12.00
2023-10-26T16:49:27.178Z,12.10
2023-10-26T16:51:56.903Z,12.20
2023-10-26T16:54:25.989Z,12.10
2023-10-26T16:56:54.154Z,12.20
2023-10-26T16:59:22.083Z,12.20
2023-10-26T17:01:50.003Z,12.20
2023-10-26T17:04:19.196Z,12.30
2023-10-26T17:06:47.223Z,12.30
2023-10-26T17:09:15.140Z,12.30
2023-10-26T17:11:42.980Z,12.30
2023-10-26T17:14:11.512Z,12.30
2023-10-26T17:16:39.720Z,12.30
2023-10-26T17:19:09.140Z,12.30
2023-10-26T17:21:38.477Z,12.30
2023-10-26T17:24:07.206Z,12.10
2023-10-26T17:26:35.076Z,12.20
2023-10-26T17:29:03.253Z,12.20
2023-10-26T17:31:31.162Z,12.20
2023-10-26T17:33:59.118Z,12.30
2023-10-26T17:36:27.094Z,12.30
2023-10-26T17:38:56.319Z,12.30
2023-10-26T17:41:24.192Z,12.30
2023-10-26T17:43:52.216Z,12.30
2023-10-26T17:46:20.346Z,12.20
2023-10-26T17:48:48.287Z,12.20
2023-10-26T17:51:16.356Z,12.20
2023-10-26T17:53:44.247Z,12.20
2023-10-26T17:56:14.260Z,12.20
2023-10-26T17:58:43.385Z,12.10
2023-10-26T18:01:13.346Z,12.10
2023-10-26T18:03:41.608Z,12.10
2023-10-26T18:06:09.637Z,12.10
2023-10-26T18:08:38.601Z,12.10
2023-10-26T18:11:06.836Z,12.10
2023-10-26T18:13:36.960Z,12.10
2023-10-26T18:16:06.116Z,12.10
2023-10-26T18:18:34.327Z,12.10
2023-10-26T18:21:04.772Z,12.10
2023-10-26T18:23:33.761Z,12.10
2023-10-26T18:26:02.754Z,12.00
2023-10-26T18:28:33.906Z,12.10
2023-10-26T18:31:04.600Z,12.10
2023-10-26T18:33:33.322Z,12.10
2023-10-26T18:36:02.843Z,12.10
2023-10-26T18:38:31.213Z,12.10
2023-10-26T18:41:00.525Z,12.10
2023-10-26T18:43:29.526Z,12.10
2023-10-26T18:45:58.818Z,12.10
2023-10-26T18:48:32.041Z,12.10
2023-10-26T18:51:00.054Z,12.10
2023-10-26T18:53:28.173Z,12.10
2023-10-26T18:55:56.539Z,12.10
2023-10-26T18:58:25.438Z,12.10
2023-10-26T19:00:54.353Z,12.10
2023-10-26T19:03:23.794Z,12.10
2023-10-26T19:05:53.615Z,12.10
2023-10-26T19:08:21.789Z,12.10
2023-10-26T19:10:49.819Z,12.10
2023-10-26T19:13:18.139Z,12.10
2023-10-26T19:15:46.363Z,12.10
2023-10-26T19:18:14.406Z,12.00
2023-10-26T19:20:43.969Z,12.00
2023-10-26T19:23:14.335Z,12.00
2023-10-26T19:25:43.377Z,12.10
2023-10-26T19:28:11.353Z,12.10
2023-10-26T19:30:39.407Z,12.10
2023-10-26T19:33:07.435Z,12.10
2023-10-26T19:35:35.627Z,12.10
2023-10-26T19:38:03.681Z,12.10
2023-10-26T19:40:32.911Z,12.10
2023-10-26T19:43:01.086Z,12.10
2023-10-26T19:45:29.191Z,12.00
2023-10-26T19:47:58.761Z,12.00
2023-10-26T19:50:26.729Z,12.00
2023-10-26T19:52:55.002Z,12.00
2023-10-26T19:55:22.922Z,12.00
2023-10-26T19:57:52.245Z,12.00
2023-10-26T20:00:20.943Z,12.00
2023-10-26T20:02:49.592Z,12.00
2023-10-26T20:05:18.117Z,12.00
2023-10-26T20:07:46.029Z,12.10
2023-10-26T20:10:13.944Z,12.00
2023-10-26T20:12:41.942Z,12.00
2023-10-26T20:15:12.318Z,12.00
2023-10-26T20:17:40.520Z,12.00
2023-10-26T20:20:10.028Z,12.00
2023-10-26T20:22:38.037Z,12.00
2023-10-26T20:25:06.851Z,12.00
2023-10-26T20:27:34.755Z,11.90
2023-10-26T20:30:05.001Z,11.90
2023-10-26T20:32:36.813Z,11.90
2023-10-26T20:35:06.116Z,11.80
2023-10-26T20:37:35.103Z,11.80
2023-10-26T20:40:06.043Z,11.80
2023-10-26T20:42:34.120Z,11.80
2023-10-26T20:45:01.995Z,11.90
2023-10-26T20:47:29.990Z,11.90
2023-10-26T20:49:59.689Z,11.90
2023-10-26T20:52:28.402Z,11.80
2023-10-26T20:54:56.484Z,11.80
2023-10-26T20:57:24.473Z,11.80
2023-10-26T20:59:52.488Z,11.80
2023-10-26T21:02:20.400Z,11.70
2023-10-26T21:04:48.599Z,11.70
2023-10-26T21:07:18.349Z,11.70
2023-10-26T21:09:46.707Z,11.60
2023-10-26T21:12:14.752Z,11.60
2023-10-26T21:14:42.788Z,11.60
2023-10-26T21:17:11.117Z,11.50
2023-10-26T21:19:39.000Z,11.50
2023-10-26T21:22:06.969Z,11.60
2023-10-26T21:24:36.354Z,11.50
2023-10-26T21:27:04.769Z,11.60
2023-10-26T21:29:36.929Z,11.50
2023-10-26T21:32:06.151Z,11.60
2023-10-26T21:34:36.105Z,11.60
2023-10-26T21:37:04.404Z,11.70
2023-10-26T21:39:32.788Z,11.60
2023-10-26T21:42:02.333Z,11.50
2023-10-26T21:44:30.246Z,11.40
2023-10-26T21:46:58.278Z,11.50
2023-10-26T21:49:26.255Z,11.50
2023-10-26T21:51:54.341Z,11.40
2023-10-26T21:54:22.230Z,11.40
2023-10-26T21:56:50.614Z,11.50
2023-10-26T21:59:19.820Z,11.40
2023-10-26T22:01:48.393Z,11.50
2023-10-26T22:06:47.500Z,11.50
2023-10-26T22:09:15.448Z,11.50
2023-10-26T22:11:43.653Z,11.50
2023-10-26T22:14:11.482Z,11.50
2023-10-26T22:16:41.381Z,11.60
2023-10-26T22:19:09.448Z,11.60
2023-10-26T22:21:38.132Z,11.60
2023-10-26T22:24:07.877Z,11.40
2023-10-26T22:26:35.666Z,11.50
2023-10-26T22:29:05.957Z,11.50
2023-10-26T22:31:35.225Z,11.50
2023-10-26T22:34:05.332Z,11.50
2023-10-26T22:36:34.818Z,11.50
2023-10-26T22:39:03.000Z,11.40
2023-10-26T22:41:30.839Z,11.30
2023-10-26T22:43:58.718Z,11.30
2023-10-26T22:46:26.983Z,11.30
2023-10-26T22:48:55.787Z,11.20
2023-10-26T22:51:26.049Z,11.20
2023-10-26T22:53:54.098Z,11.20
2023-10-26T22:56:22.412Z,11.20
2023-10-26T22:58:50.382Z,11.10
2023-10-26T23:01:18.361Z,11.10
2023-10-26T23:03:46.402Z,11.10
2023-10-26T23:06:14.313Z,11.00
2023-10-26T23:08:43.721Z,11.00
2023-10-26T23:11:11.628Z,11.10
2023-10-26T23:13:39.521Z,11.10
2023-10-26T23:16:08.031Z,11.20
2023-10-26T23:18:36.012Z,11.20
2023-10-26T23:21:04.016Z,11.30
2023-10-26T23:23:32.031Z,11.30
2023-10-26T23:26:01.892Z,11.30
2023-10-26T23:28:29.755Z,11.30
2023-10-26T23:30:57.664Z,11.30
2023-10-26T23:33:25.555Z,11.20
2023-10-26T23:35:53.412Z,11.10
2023-10-26T23:38:22.086Z,11.20
2023-10-26T23:40:49.962Z,11.20
2023-10-26T23:43:19.128Z,11.20
2023-10-26T23:45:47.368Z,11.20
2023-10-26T23:48:15.277Z,11.20
2023-10-26T23:50:43.146Z,11.10
2023-10-26T23:53:11.600Z,11.20
2023-10-26T23:55:39.468Z,11.20
2023-10-26T23:58:07.512Z,11.20
